BTK7309 WIHH-WADD
Flight info
| Callsign | BTK7309 |
|---|---|
| Flight time | 1h 22m |
| Altitude | 37000 |
| Route | CA T3 MOVMO |
| Aircraft | A320/M-SDE3FGHIRWY/LB1 |
Departure
| Time | 2026-04-14 03:59 |
|---|---|
| Airport | Halim Perdanakusuma International Airport (WIHH) |
Arrival
| Time | 2026-04-14 05:22 |
|---|---|
| Airport | Denpasar I Gusti Ngurah Rai International Airport (WADD) |
| Time | Latitude | Longitude | Altitude | Speed | Heading |
|---|---|---|---|---|---|
| 2026-04-14 03:32 | -6.26551 | 106.88735 | 95 ft | 0 kts | 336° |
| 2026-04-14 03:48 | -6.26565 | 106.88742 | 94 ft | 3 kts | 328° |
| 2026-04-14 03:48 | -6.26581 | 106.88754 | 95 ft | 3 kts | 310° |
| 2026-04-14 03:49 | -6.26591 | 106.88770 | 96 ft | 3 kts | 281° |
| 2026-04-14 03:49 | -6.26592 | 106.88785 | 94 ft | 1 kts | 246° |
| 2026-04-14 03:49 | -6.26591 | 106.88787 | 95 ft | 0 kts | 245° |
| 2026-04-14 03:52 | -6.26598 | 106.88772 | 95 ft | 3 kts | 245° |
| 2026-04-14 03:52 | -6.26605 | 106.88757 | 95 ft | 2 kts | 245° |
| 2026-04-14 03:52 | -6.26609 | 106.88747 | 95 ft | 2 kts | 245° |
| 2026-04-14 03:52 | -6.26623 | 106.88717 | 95 ft | 7 kts | 245° |
| 2026-04-14 03:53 | -6.26651 | 106.88656 | 96 ft | 12 kts | 245° |
| 2026-04-14 03:53 | -6.26689 | 106.88575 | 93 ft | 12 kts | 245° |
| 2026-04-14 03:53 | -6.26722 | 106.88503 | 94 ft | 11 kts | 245° |
| 2026-04-14 03:53 | -6.26778 | 106.88485 | 95 ft | 8 kts | 158° |
| 2026-04-14 03:54 | -6.26827 | 106.88509 | 94 ft | 8 kts | 155° |
| 2026-04-14 03:54 | -6.26874 | 106.88531 | 93 ft | 7 kts | 155° |
| 2026-04-14 03:54 | -6.26919 | 106.88538 | 93 ft | 6 kts | 199° |
| 2026-04-14 03:54 | -6.26942 | 106.88503 | 93 ft | 7 kts | 245° |
| 2026-04-14 03:55 | -6.26963 | 106.88456 | 91 ft | 7 kts | 245° |
| 2026-04-14 03:55 | -6.26984 | 106.88411 | 94 ft | 7 kts | 245° |
| 2026-04-14 03:55 | -6.27004 | 106.88369 | 92 ft | 8 kts | 245° |
| 2026-04-14 03:55 | -6.27032 | 106.88308 | 94 ft | 9 kts | 245° |
| 2026-04-14 03:56 | -6.27056 | 106.88254 | 95 ft | 8 kts | 246° |
| 2026-04-14 03:56 | -6.27076 | 106.88210 | 94 ft | 6 kts | 242° |
| 2026-04-14 03:56 | -6.27099 | 106.88162 | 94 ft | 11 kts | 243° |
| 2026-04-14 03:56 | -6.27142 | 106.88073 | 94 ft | 14 kts | 248° |
| 2026-04-14 03:57 | -6.27156 | 106.87983 | 95 ft | 12 kts | 266° |
| 2026-04-14 03:57 | -6.27170 | 106.87908 | 96 ft | 10 kts | 248° |
| 2026-04-14 03:57 | -6.27218 | 106.87891 | 96 ft | 7 kts | 148° |
| 2026-04-14 03:57 | -6.27214 | 106.87910 | 98 ft | 4 kts | 51° |
| 2026-04-14 03:58 | -6.27208 | 106.87925 | 96 ft | 0 kts | 66° |
| 2026-04-14 03:58 | -6.27204 | 106.87934 | 98 ft | 9 kts | 66° |
| 2026-04-14 03:58 | -6.27062 | 106.88242 | 96 ft | 85 kts | 65° |
| 2026-04-14 03:58 | -6.26727 | 106.88970 | 99 ft | 142 kts | 65° |
| 2026-04-14 03:59 | -6.26247 | 106.89993 | 304 ft | 170 kts | 66° |
| 2026-04-14 03:59 | -6.25765 | 106.91083 | 1026 ft | 172 kts | 69° |
| 2026-04-14 03:59 | -6.25626 | 106.92300 | 1723 ft | 183 kts | 107° |
| 2026-04-14 03:59 | -6.26268 | 106.93448 | 2154 ft | 200 kts | 121° |
| 2026-04-14 04:00 | -6.26990 | 106.94608 | 2430 ft | 222 kts | 120° |
| 2026-04-14 04:00 | -6.27800 | 106.96023 | 2832 ft | 246 kts | 111° |
| 2026-04-14 04:00 | -6.28299 | 106.97714 | 3499 ft | 257 kts | 104° |
| 2026-04-14 04:00 | -6.28764 | 106.99461 | 4331 ft | 262 kts | 105° |
| 2026-04-14 04:01 | -6.29238 | 107.01240 | 5163 ft | 265 kts | 104° |
| 2026-04-14 04:01 | -6.29717 | 107.03053 | 5992 ft | 273 kts | 105° |
| 2026-04-14 04:01 | -6.30213 | 107.04909 | 6863 ft | 277 kts | 104° |
| 2026-04-14 04:01 | -6.30705 | 107.06798 | 7693 ft | 282 kts | 104° |
| 2026-04-14 04:02 | -6.31196 | 107.08714 | 8489 ft | 285 kts | 104° |
| 2026-04-14 04:02 | -6.31701 | 107.10653 | 9243 ft | 289 kts | 105° |
| 2026-04-14 04:02 | -6.32222 | 107.12628 | 9974 ft | 294 kts | 105° |
| 2026-04-14 04:02 | -6.32760 | 107.14665 | 10341 ft | 313 kts | 105° |
| 2026-04-14 04:03 | -6.33340 | 107.16859 | 10527 ft | 336 kts | 105° |
| 2026-04-14 04:03 | -6.33955 | 107.19180 | 10929 ft | 349 kts | 105° |
| 2026-04-14 04:03 | -6.34574 | 107.21526 | 11570 ft | 354 kts | 105° |
| 2026-04-14 04:03 | -6.35211 | 107.23932 | 12223 ft | 359 kts | 106° |
| 2026-04-14 04:04 | -6.35863 | 107.26396 | 12881 ft | 362 kts | 105° |
| 2026-04-14 04:04 | -6.36498 | 107.28824 | 13505 ft | 366 kts | 105° |
| 2026-04-14 04:04 | -6.37154 | 107.31343 | 14132 ft | 369 kts | 105° |
| 2026-04-14 04:04 | -6.37803 | 107.33812 | 14735 ft | 373 kts | 105° |
| 2026-04-14 04:05 | -6.38472 | 107.36349 | 15345 ft | 376 kts | 105° |
| 2026-04-14 04:05 | -6.39142 | 107.38899 | 15910 ft | 379 kts | 104° |
| 2026-04-14 04:05 | -6.39815 | 107.41473 | 16471 ft | 382 kts | 105° |
| 2026-04-14 04:05 | -6.40498 | 107.44067 | 16987 ft | 386 kts | 105° |
| 2026-04-14 04:06 | -6.41187 | 107.46689 | 17530 ft | 390 kts | 105° |
| 2026-04-14 04:06 | -6.41879 | 107.49331 | 18060 ft | 392 kts | 105° |
| 2026-04-14 04:06 | -6.42577 | 107.51990 | 18556 ft | 395 kts | 105° |
| 2026-04-14 04:06 | -6.43282 | 107.54669 | 19045 ft | 398 kts | 105° |
| 2026-04-14 04:07 | -6.43993 | 107.57369 | 19544 ft | 401 kts | 105° |
| 2026-04-14 04:07 | -6.44707 | 107.60080 | 20014 ft | 404 kts | 105° |
| 2026-04-14 04:07 | -6.45430 | 107.62821 | 20496 ft | 407 kts | 104° |
| 2026-04-14 04:07 | -6.46159 | 107.65578 | 20972 ft | 409 kts | 104° |
| 2026-04-14 04:08 | -6.46886 | 107.68345 | 21400 ft | 410 kts | 104° |
| 2026-04-14 04:08 | -6.47619 | 107.71125 | 21798 ft | 413 kts | 104° |
| 2026-04-14 04:08 | -6.48353 | 107.73924 | 22199 ft | 416 kts | 104° |
| 2026-04-14 04:08 | -6.49097 | 107.76748 | 22635 ft | 419 kts | 104° |
| 2026-04-14 04:09 | -6.49843 | 107.79591 | 23059 ft | 421 kts | 104° |
| 2026-04-14 04:09 | -6.50589 | 107.82441 | 23469 ft | 423 kts | 104° |
| 2026-04-14 04:09 | -6.51340 | 107.85310 | 23846 ft | 425 kts | 104° |
| 2026-04-14 04:09 | -6.52099 | 107.88191 | 24207 ft | 427 kts | 104° |
| 2026-04-14 04:10 | -6.52859 | 107.91088 | 24579 ft | 429 kts | 104° |
| 2026-04-14 04:10 | -6.53619 | 107.93997 | 24939 ft | 432 kts | 104° |
| 2026-04-14 04:10 | -6.54382 | 107.96920 | 25284 ft | 433 kts | 104° |
| 2026-04-14 04:10 | -6.55148 | 107.99857 | 25601 ft | 435 kts | 104° |
| 2026-04-14 04:11 | -6.55914 | 108.02805 | 25940 ft | 437 kts | 104° |
| 2026-04-14 04:11 | -6.56684 | 108.05765 | 26269 ft | 438 kts | 104° |
| 2026-04-14 04:11 | -6.57451 | 108.08700 | 26586 ft | 441 kts | 105° |
| 2026-04-14 04:11 | -6.58245 | 108.11723 | 26915 ft | 443 kts | 105° |
| 2026-04-14 04:12 | -6.59023 | 108.14684 | 27238 ft | 445 kts | 105° |
| 2026-04-14 04:12 | -6.59812 | 108.17697 | 27535 ft | 446 kts | 105° |
| 2026-04-14 04:12 | -6.60603 | 108.20722 | 27826 ft | 448 kts | 105° |
| 2026-04-14 04:12 | -6.61392 | 108.23764 | 28116 ft | 451 kts | 105° |
| 2026-04-14 04:13 | -6.62184 | 108.26817 | 28412 ft | 452 kts | 105° |
| 2026-04-14 04:13 | -6.62979 | 108.29879 | 28704 ft | 453 kts | 105° |
| 2026-04-14 04:13 | -6.63782 | 108.32953 | 28974 ft | 455 kts | 105° |
| 2026-04-14 04:13 | -6.64587 | 108.36040 | 29239 ft | 457 kts | 105° |
| 2026-04-14 04:14 | -6.65399 | 108.39134 | 29504 ft | 458 kts | 105° |
| 2026-04-14 04:14 | -6.66216 | 108.42233 | 29761 ft | 460 kts | 105° |
| 2026-04-14 04:14 | -6.67038 | 108.45347 | 30031 ft | 461 kts | 105° |
| 2026-04-14 04:14 | -6.67857 | 108.48469 | 30265 ft | 462 kts | 105° |
| 2026-04-14 04:15 | -6.68672 | 108.51607 | 30496 ft | 465 kts | 105° |
| 2026-04-14 04:15 | -6.69487 | 108.54749 | 30865 ft | 463 kts | 105° |
| 2026-04-14 04:15 | -6.70106 | 108.57921 | 31229 ft | 462 kts | 99° |
| 2026-04-14 04:15 | -6.70591 | 108.61111 | 31565 ft | 462 kts | 99° |
| 2026-04-14 04:16 | -6.71075 | 108.64294 | 31921 ft | 459 kts | 99° |
| 2026-04-14 04:16 | -6.71561 | 108.67457 | 32261 ft | 458 kts | 99° |
| 2026-04-14 04:16 | -6.72049 | 108.70618 | 32601 ft | 457 kts | 100° |
| 2026-04-14 04:16 | -6.72537 | 108.73771 | 32938 ft | 456 kts | 100° |
| 2026-04-14 04:17 | -6.73024 | 108.76919 | 33259 ft | 455 kts | 99° |
| 2026-04-14 04:17 | -6.73512 | 108.80059 | 33580 ft | 454 kts | 100° |
| 2026-04-14 04:17 | -6.73998 | 108.83193 | 33918 ft | 453 kts | 100° |
| 2026-04-14 04:17 | -6.74479 | 108.86318 | 34252 ft | 452 kts | 99° |
| 2026-04-14 04:18 | -6.74946 | 108.89398 | 34573 ft | 451 kts | 99° |
| 2026-04-14 04:18 | -6.75416 | 108.92514 | 34876 ft | 450 kts | 100° |
| 2026-04-14 04:18 | -6.75886 | 108.95611 | 35124 ft | 447 kts | 100° |
| 2026-04-14 04:18 | -6.76358 | 108.98710 | 35324 ft | 448 kts | 100° |
| 2026-04-14 04:19 | -6.76832 | 109.01815 | 35564 ft | 449 kts | 99° |
| 2026-04-14 04:19 | -6.77304 | 109.04920 | 35834 ft | 448 kts | 99° |
| 2026-04-14 04:19 | -6.77779 | 109.08018 | 36090 ft | 448 kts | 100° |
| 2026-04-14 04:19 | -6.78254 | 109.11112 | 36330 ft | 447 kts | 99° |
| 2026-04-14 04:20 | -6.78727 | 109.14207 | 36550 ft | 447 kts | 99° |
| 2026-04-14 04:20 | -6.79198 | 109.17294 | 36781 ft | 447 kts | 99° |
| 2026-04-14 04:20 | -6.79670 | 109.20382 | 36902 ft | 446 kts | 99° |
| 2026-04-14 04:21 | -6.80607 | 109.26512 | 36930 ft | 441 kts | 99° |
| 2026-04-14 04:21 | -6.81537 | 109.32592 | 36930 ft | 439 kts | 100° |
| 2026-04-14 04:22 | -6.82457 | 109.38664 | 36924 ft | 439 kts | 99° |
| 2026-04-14 04:22 | -6.83385 | 109.44724 | 36921 ft | 438 kts | 100° |
| 2026-04-14 04:23 | -6.84310 | 109.50790 | 36915 ft | 438 kts | 100° |
| 2026-04-14 04:23 | -6.85215 | 109.56814 | 36915 ft | 439 kts | 99° |
| 2026-04-14 04:24 | -6.86131 | 109.62890 | 36904 ft | 439 kts | 99° |
| 2026-04-14 04:24 | -6.87053 | 109.68956 | 36919 ft | 439 kts | 100° |
| 2026-04-14 04:25 | -6.87985 | 109.75035 | 36937 ft | 439 kts | 100° |
| 2026-04-14 04:25 | -6.88906 | 109.81111 | 36939 ft | 439 kts | 100° |
| 2026-04-14 04:26 | -6.89819 | 109.87188 | 36938 ft | 439 kts | 100° |
| 2026-04-14 04:26 | -6.90731 | 109.93259 | 36936 ft | 438 kts | 100° |
| 2026-04-14 04:27 | -6.91641 | 109.99306 | 36918 ft | 436 kts | 100° |
| 2026-04-14 04:27 | -6.92557 | 110.05344 | 36913 ft | 437 kts | 100° |
| 2026-04-14 04:28 | -6.93469 | 110.11399 | 36917 ft | 438 kts | 100° |
| 2026-04-14 04:28 | -6.94382 | 110.17461 | 36921 ft | 438 kts | 100° |
| 2026-04-14 04:29 | -6.95313 | 110.23517 | 36930 ft | 439 kts | 102° |
| 2026-04-14 04:29 | -6.96963 | 110.29412 | 36932 ft | 437 kts | 107° |
| 2026-04-14 04:30 | -6.98707 | 110.35275 | 36928 ft | 437 kts | 108° |
| 2026-04-14 04:30 | -7.00445 | 110.41092 | 36921 ft | 437 kts | 108° |
| 2026-04-14 04:31 | -7.02204 | 110.46990 | 36918 ft | 437 kts | 108° |
| 2026-04-14 04:31 | -7.04797 | 110.55752 | 36909 ft | 438 kts | 107° |
| 2026-04-14 04:32 | -7.06524 | 110.61626 | 36929 ft | 438 kts | 107° |
| 2026-04-14 04:32 | -7.08259 | 110.67500 | 36922 ft | 437 kts | 107° |
| 2026-04-14 04:33 | -7.09999 | 110.73357 | 36932 ft | 435 kts | 107° |
| 2026-04-14 04:33 | -7.11732 | 110.79205 | 36929 ft | 436 kts | 108° |
| 2026-04-14 04:34 | -7.13452 | 110.85055 | 36921 ft | 435 kts | 108° |
| 2026-04-14 04:34 | -7.15178 | 110.90897 | 36912 ft | 435 kts | 108° |
| 2026-04-14 04:35 | -7.16907 | 110.96743 | 36928 ft | 436 kts | 108° |
| 2026-04-14 04:35 | -7.18639 | 111.02599 | 36918 ft | 436 kts | 107° |
| 2026-04-14 04:36 | -7.20361 | 111.08465 | 36930 ft | 437 kts | 107° |
| 2026-04-14 04:36 | -7.22085 | 111.14339 | 36931 ft | 438 kts | 108° |
| 2026-04-14 04:37 | -7.23817 | 111.20219 | 36932 ft | 438 kts | 108° |
| 2026-04-14 04:37 | -7.25549 | 111.26085 | 36932 ft | 436 kts | 108° |
| 2026-04-14 04:38 | -7.27259 | 111.31913 | 36916 ft | 436 kts | 107° |
| 2026-04-14 04:38 | -7.28994 | 111.37779 | 36914 ft | 437 kts | 107° |
| 2026-04-14 04:39 | -7.30717 | 111.43638 | 36914 ft | 437 kts | 107° |
| 2026-04-14 04:39 | -7.32428 | 111.49502 | 36915 ft | 436 kts | 107° |
| 2026-04-14 04:40 | -7.34139 | 111.55348 | 36912 ft | 435 kts | 107° |
| 2026-04-14 04:41 | -7.36714 | 111.64113 | 36905 ft | 435 kts | 107° |
| 2026-04-14 04:41 | -7.38415 | 111.69950 | 36912 ft | 434 kts | 107° |
| 2026-04-14 04:42 | -7.40119 | 111.75775 | 36922 ft | 432 kts | 107° |
| 2026-04-14 04:42 | -7.41837 | 111.81577 | 36907 ft | 433 kts | 107° |
| 2026-04-14 04:43 | -7.43546 | 111.87395 | 36894 ft | 433 kts | 107° |
| 2026-04-14 04:43 | -7.45242 | 111.93223 | 36887 ft | 433 kts | 107° |
| 2026-04-14 04:44 | -7.46945 | 111.99051 | 36892 ft | 434 kts | 107° |
| 2026-04-14 04:44 | -7.48664 | 112.04897 | 36892 ft | 434 kts | 108° |
| 2026-04-14 04:45 | -7.50370 | 112.10721 | 36893 ft | 434 kts | 107° |
| 2026-04-14 04:45 | -7.52062 | 112.16562 | 36889 ft | 434 kts | 107° |
| 2026-04-14 04:46 | -7.53753 | 112.22365 | 36894 ft | 434 kts | 107° |
| 2026-04-14 04:46 | -7.55458 | 112.28195 | 36893 ft | 434 kts | 107° |
| 2026-04-14 04:47 | -7.57081 | 112.33702 | 36900 ft | 435 kts | 107° |
| 2026-04-14 04:47 | -7.58786 | 112.39550 | 36906 ft | 435 kts | 107° |
| 2026-04-14 04:48 | -7.60472 | 112.45409 | 36903 ft | 435 kts | 107° |
| 2026-04-14 04:48 | -7.62165 | 112.51266 | 36905 ft | 436 kts | 107° |
| 2026-04-14 04:49 | -7.63583 | 112.56139 | 36906 ft | 436 kts | 107° |
| 2026-04-14 04:49 | -7.65581 | 112.62993 | 36899 ft | 436 kts | 107° |
| 2026-04-14 04:50 | -7.67000 | 112.67869 | 36894 ft | 436 kts | 107° |
| 2026-04-14 04:50 | -7.68705 | 112.73732 | 36892 ft | 436 kts | 107° |
| 2026-04-14 04:51 | -7.70408 | 112.79601 | 36898 ft | 436 kts | 107° |
| 2026-04-14 04:51 | -7.72110 | 112.85493 | 36901 ft | 438 kts | 107° |
| 2026-04-14 04:52 | -7.73820 | 112.91378 | 36889 ft | 437 kts | 107° |
| 2026-04-14 04:52 | -7.75527 | 112.97261 | 36891 ft | 437 kts | 107° |
| 2026-04-14 04:53 | -7.77232 | 113.03148 | 36885 ft | 437 kts | 107° |
| 2026-04-14 04:53 | -7.78932 | 113.09034 | 36885 ft | 437 kts | 107° |
| 2026-04-14 04:54 | -7.80635 | 113.14928 | 36891 ft | 438 kts | 108° |
| 2026-04-14 04:54 | -7.82339 | 113.20816 | 36887 ft | 437 kts | 108° |
| 2026-04-14 04:55 | -7.84038 | 113.26708 | 36886 ft | 438 kts | 107° |
| 2026-04-14 04:55 | -7.85731 | 113.32569 | 36888 ft | 438 kts | 108° |
| 2026-04-14 04:56 | -7.87436 | 113.38467 | 36874 ft | 438 kts | 108° |
| 2026-04-14 04:56 | -7.89142 | 113.44387 | 36881 ft | 440 kts | 107° |
| 2026-04-14 04:57 | -7.90846 | 113.50311 | 36842 ft | 440 kts | 108° |
| 2026-04-14 04:57 | -7.91700 | 113.53281 | 36586 ft | 441 kts | 108° |
| 2026-04-14 04:57 | -7.92556 | 113.56249 | 36339 ft | 439 kts | 107° |
| 2026-04-14 04:57 | -7.93409 | 113.59204 | 36093 ft | 441 kts | 108° |
| 2026-04-14 04:58 | -7.94268 | 113.62177 | 35843 ft | 444 kts | 108° |
| 2026-04-14 04:58 | -7.95134 | 113.65175 | 35594 ft | 446 kts | 108° |
| 2026-04-14 04:58 | -7.96002 | 113.68187 | 35337 ft | 448 kts | 108° |
| 2026-04-14 04:58 | -7.96872 | 113.71211 | 35080 ft | 450 kts | 108° |
| 2026-04-14 04:59 | -7.97742 | 113.74248 | 34839 ft | 451 kts | 108° |
| 2026-04-14 04:59 | -7.98611 | 113.77288 | 34594 ft | 451 kts | 108° |
| 2026-04-14 04:59 | -7.99482 | 113.80327 | 34342 ft | 451 kts | 109° |
| 2026-04-14 04:59 | -8.00669 | 113.83244 | 34085 ft | 448 kts | 121° |
| 2026-04-14 05:00 | -8.02436 | 113.85806 | 33840 ft | 446 kts | 133° |
| 2026-04-14 05:00 | -8.04705 | 113.87920 | 33593 ft | 444 kts | 144° |
| 2026-04-14 05:00 | -8.07358 | 113.89508 | 33342 ft | 444 kts | 156° |
| 2026-04-14 05:00 | -8.10281 | 113.90506 | 33095 ft | 444 kts | 168° |
| 2026-04-14 05:01 | -8.13349 | 113.90961 | 32846 ft | 448 kts | 173° |
| 2026-04-14 05:01 | -8.16447 | 113.91341 | 32595 ft | 449 kts | 172° |
| 2026-04-14 05:01 | -8.19553 | 113.91723 | 32342 ft | 450 kts | 172° |
| 2026-04-14 05:01 | -8.22673 | 113.92108 | 31477 ft | 455 kts | 173° |
| 2026-04-14 05:02 | -8.25781 | 113.92491 | 30641 ft | 456 kts | 172° |
| 2026-04-14 05:02 | -8.28915 | 113.92881 | 29958 ft | 451 kts | 173° |
| 2026-04-14 05:02 | -8.32015 | 113.93271 | 29259 ft | 448 kts | 173° |
| 2026-04-14 05:02 | -8.35100 | 113.93656 | 28564 ft | 444 kts | 173° |
| 2026-04-14 05:03 | -8.38147 | 113.94034 | 27882 ft | 439 kts | 173° |
| 2026-04-14 05:03 | -8.41171 | 113.94411 | 27218 ft | 436 kts | 173° |
| 2026-04-14 05:03 | -8.44171 | 113.94785 | 26553 ft | 432 kts | 173° |
| 2026-04-14 05:03 | -8.47141 | 113.95154 | 25894 ft | 429 kts | 173° |
| 2026-04-14 05:04 | -8.50092 | 113.95521 | 25246 ft | 425 kts | 173° |
| 2026-04-14 05:04 | -8.53016 | 113.95886 | 24611 ft | 421 kts | 173° |
| 2026-04-14 05:04 | -8.55874 | 113.96467 | 23988 ft | 418 kts | 161° |
| 2026-04-14 05:04 | -8.58478 | 113.97727 | 23385 ft | 413 kts | 147° |
| 2026-04-14 05:05 | -8.60645 | 113.99604 | 22827 ft | 409 kts | 132° |
| 2026-04-14 05:05 | -8.62255 | 114.01948 | 22261 ft | 406 kts | 118° |
| 2026-04-14 05:05 | -8.63276 | 114.04592 | 21728 ft | 402 kts | 110° |
| 2026-04-14 05:05 | -8.64162 | 114.07263 | 21197 ft | 401 kts | 109° |
| 2026-04-14 05:06 | -8.65041 | 114.09922 | 20673 ft | 397 kts | 109° |
| 2026-04-14 05:06 | -8.65924 | 114.12560 | 20130 ft | 396 kts | 109° |
| 2026-04-14 05:06 | -8.66808 | 114.15186 | 19606 ft | 392 kts | 109° |
| 2026-04-14 05:06 | -8.67687 | 114.17793 | 19069 ft | 391 kts | 109° |
| 2026-04-14 05:07 | -8.68559 | 114.20387 | 18542 ft | 389 kts | 109° |
| 2026-04-14 05:07 | -8.69421 | 114.22963 | 17991 ft | 387 kts | 109° |
| 2026-04-14 05:07 | -8.70280 | 114.25535 | 17458 ft | 385 kts | 109° |
| 2026-04-14 05:07 | -8.71137 | 114.28097 | 16910 ft | 384 kts | 109° |
| 2026-04-14 05:08 | -8.71992 | 114.30643 | 16372 ft | 382 kts | 109° |
| 2026-04-14 05:08 | -8.72844 | 114.33181 | 15806 ft | 381 kts | 109° |
| 2026-04-14 05:08 | -8.73691 | 114.35705 | 15264 ft | 378 kts | 109° |
| 2026-04-14 05:08 | -8.74529 | 114.38208 | 14733 ft | 375 kts | 109° |
| 2026-04-14 05:09 | -8.75363 | 114.40713 | 14189 ft | 374 kts | 109° |
| 2026-04-14 05:09 | -8.76191 | 114.43201 | 13638 ft | 373 kts | 109° |
| 2026-04-14 05:09 | -8.77017 | 114.45679 | 13080 ft | 371 kts | 109° |
| 2026-04-14 05:09 | -8.77840 | 114.48139 | 12571 ft | 367 kts | 109° |
| 2026-04-14 05:10 | -8.78653 | 114.50570 | 12061 ft | 364 kts | 109° |
| 2026-04-14 05:10 | -8.79445 | 114.52951 | 11517 ft | 360 kts | 109° |
| 2026-04-14 05:10 | -8.80248 | 114.55370 | 10936 ft | 357 kts | 109° |
| 2026-04-14 05:10 | -8.81026 | 114.57706 | 10461 ft | 352 kts | 109° |
| 2026-04-14 05:11 | -8.81795 | 114.60004 | 10339 ft | 338 kts | 109° |
| 2026-04-14 05:11 | -8.82537 | 114.62208 | 10205 ft | 324 kts | 109° |
| 2026-04-14 05:11 | -8.83245 | 114.64327 | 10086 ft | 312 kts | 108° |
| 2026-04-14 05:11 | -8.83914 | 114.66365 | 9954 ft | 300 kts | 105° |
| 2026-04-14 05:12 | -8.84204 | 114.68421 | 9642 ft | 295 kts | 90° |
| 2026-04-14 05:12 | -8.83885 | 114.70462 | 9293 ft | 292 kts | 73° |
| 2026-04-14 05:12 | -8.83147 | 114.72338 | 8787 ft | 286 kts | 68° |
| 2026-04-14 05:12 | -8.82381 | 114.74185 | 8380 ft | 284 kts | 68° |
| 2026-04-14 05:13 | -8.81625 | 114.76020 | 7987 ft | 280 kts | 68° |
| 2026-04-14 05:13 | -8.80878 | 114.77839 | 7596 ft | 280 kts | 68° |
| 2026-04-14 05:13 | -8.80140 | 114.79639 | 7210 ft | 271 kts | 68° |
| 2026-04-14 05:13 | -8.79437 | 114.81351 | 6855 ft | 256 kts | 68° |
| 2026-04-14 05:14 | -8.78777 | 114.82970 | 6505 ft | 242 kts | 68° |
| 2026-04-14 05:14 | -8.78148 | 114.84513 | 6182 ft | 232 kts | 69° |
| 2026-04-14 05:14 | -8.77543 | 114.85995 | 5879 ft | 225 kts | 69° |
| 2026-04-14 05:14 | -8.76951 | 114.87435 | 5564 ft | 218 kts | 69° |
| 2026-04-14 05:15 | -8.76383 | 114.88819 | 5277 ft | 209 kts | 69° |
| 2026-04-14 05:15 | -8.75833 | 114.90170 | 4988 ft | 203 kts | 69° |
| 2026-04-14 05:15 | -8.75488 | 114.91522 | 4701 ft | 198 kts | 85° |
| 2026-04-14 05:15 | -8.75483 | 114.92853 | 4469 ft | 186 kts | 91° |
| 2026-04-14 05:16 | -8.75491 | 114.94112 | 4201 ft | 174 kts | 91° |
| 2026-04-14 05:16 | -8.75496 | 114.95301 | 3970 ft | 165 kts | 91° |
| 2026-04-14 05:16 | -8.75505 | 114.96490 | 3746 ft | 169 kts | 90° |
| 2026-04-14 05:16 | -8.75511 | 114.97615 | 3520 ft | 152 kts | 90° |
| 2026-04-14 05:17 | -8.75511 | 114.98634 | 3305 ft | 139 kts | 91° |
| 2026-04-14 05:17 | -8.75516 | 114.99594 | 3116 ft | 138 kts | 86° |
| 2026-04-14 05:17 | -8.75480 | 115.00560 | 2925 ft | 137 kts | 89° |
| 2026-04-14 05:17 | -8.75439 | 115.01518 | 2756 ft | 136 kts | 89° |
| 2026-04-14 05:18 | -8.75394 | 115.02472 | 2571 ft | 136 kts | 90° |
| 2026-04-14 05:18 | -8.75360 | 115.03423 | 2384 ft | 134 kts | 91° |
| 2026-04-14 05:18 | -8.75328 | 115.04347 | 2198 ft | 132 kts | 89° |
| 2026-04-14 05:18 | -8.75290 | 115.05270 | 2015 ft | 131 kts | 91° |
| 2026-04-14 05:19 | -8.75252 | 115.06190 | 1835 ft | 129 kts | 90° |
| 2026-04-14 05:19 | -8.75213 | 115.07092 | 1669 ft | 128 kts | 91° |
| 2026-04-14 05:19 | -8.75180 | 115.08003 | 1489 ft | 130 kts | 91° |
| 2026-04-14 05:19 | -8.75146 | 115.08903 | 1302 ft | 124 kts | 87° |
| 2026-04-14 05:20 | -8.75107 | 115.09797 | 1143 ft | 130 kts | 91° |
| 2026-04-14 05:20 | -8.75062 | 115.10720 | 938 ft | 130 kts | 89° |
| 2026-04-14 05:20 | -8.75009 | 115.11635 | 805 ft | 131 kts | 90° |
| 2026-04-14 05:20 | -8.74992 | 115.12550 | 660 ft | 131 kts | 95° |
| 2026-04-14 05:21 | -8.74977 | 115.13480 | 363 ft | 129 kts | 90° |
| 2026-04-14 05:21 | -8.74938 | 115.14385 | 214 ft | 129 kts | 92° |
| 2026-04-14 05:21 | -8.74900 | 115.15283 | 84 ft | 128 kts | 94° |
| 2026-04-14 05:21 | -8.74862 | 115.16128 | 31 ft | 105 kts | 90° |
| 2026-04-14 05:22 | -8.74850 | 115.16585 | 29 ft | 29 kts | 86° |
| 2026-04-14 05:22 | -8.74810 | 115.16759 | 27 ft | 24 kts | 64° |
| 2026-04-14 05:22 | -8.74742 | 115.16855 | 30 ft | 10 kts | 27° |
| 2026-04-14 05:22 | -8.74695 | 115.16849 | 32 ft | 5 kts | 327° |
| 2026-04-14 05:23 | -8.74675 | 115.16827 | 32 ft | 4 kts | 298° |
| 2026-04-14 05:23 | -8.74672 | 115.16797 | 32 ft | 4 kts | 266° |
| 2026-04-14 05:23 | -8.74676 | 115.16772 | 32 ft | 3 kts | 263° |
| 2026-04-14 05:23 | -8.74678 | 115.16751 | 32 ft | 3 kts | 265° |
| 2026-04-14 05:24 | -8.74679 | 115.16731 | 32 ft | 3 kts | 268° |
| 2026-04-14 05:24 | -8.74680 | 115.16706 | 32 ft | 6 kts | 268° |
| 2026-04-14 05:24 | -8.74681 | 115.16667 | 32 ft | 5 kts | 268° |
| 2026-04-14 05:24 | -8.74683 | 115.16635 | 32 ft | 4 kts | 268° |
| 2026-04-14 05:25 | -8.74684 | 115.16609 | 32 ft | 4 kts | 267° |
| 2026-04-14 05:25 | -8.74685 | 115.16585 | 31 ft | 3 kts | 267° |
| 2026-04-14 05:25 | -8.74686 | 115.16563 | 32 ft | 3 kts | 267° |
| 2026-04-14 05:25 | -8.74687 | 115.16541 | 32 ft | 3 kts | 267° |
| 2026-04-14 05:26 | -8.74688 | 115.16520 | 32 ft | 3 kts | 267° |
| 2026-04-14 05:26 | -8.74689 | 115.16498 | 32 ft | 3 kts | 267° |
| 2026-04-14 05:26 | -8.74690 | 115.16477 | 32 ft | 3 kts | 267° |
| 2026-04-14 05:26 | -8.74685 | 115.16470 | 33 ft | 1 kts | 327° |
| 2026-04-14 05:27 | -8.74651 | 115.16473 | 33 ft | 6 kts | 5° |
| 2026-04-14 05:27 | -8.74611 | 115.16474 | 33 ft | 5 kts | 358° |
| 2026-04-14 05:27 | -8.74579 | 115.16473 | 31 ft | 4 kts | 358° |
| 2026-04-14 05:27 | -8.74563 | 115.16472 | 35 ft | 0 kts | 357° |
| 2026-04-14 05:28 | -8.74565 | 115.16472 | 33 ft | 0 kts | 357° |
| 2026-04-14 05:28 | -8.74564 | 115.16472 | 33 ft | 0 kts | 357° |